Hs Rome — D5DR4 — position and weather

sailwx.info

Track history (hours):
 
Tides and Currents Weather Stations Pressure Air Temp Water Temp Dewpoint Dewpoint Depression Visibility Wind Speed Wind Dir Waves Ship Positions

Hs Rome

Last reported at 2017-Nov-12 04:29 UTC. Time now 2017-Nov-19 21:50 UTC.
Position N 26°23' W 079°29'.

Length 300 m; draft 11.3 m.

Type: Ship (hazmat cat A). MMSI: 636092485.

Date/timePositionNaut miles runAvg speedWind from/ knotsBaromVisibWave heightAir tempDewpointWater temp
2017-Nov-12 04:29N 26°23' W 079°29'816.0
2017-Nov-12 04:01N 26°16' W 079°30'816.0
2017-Nov-12 03:30N 26°08' W 079°31'1016.1
2017-Nov-12 02:55N 25°58' W 079°33'716.0
2017-Nov-12 02:30N 25°52' W 079°33'1016.0
2017-Nov-12 01:54N 25°42' W 079°35'14913.9
2017-Nov-11 15:08N 23°51' W 081°25'322.9
2017-Nov-11 14:59N 23°50' W 081°28'1223.3
2017-Nov-11 14:29N 23°48' W 081°41'1121.0
2017-Nov-11 13:59N 23°48' W 081°52'916.9
2017-Nov-11 13:29N 23°48' W 082°01'  
2017-Nov-07 17:25N 29°21' W 094°44'511.5
2017-Nov-07 17:00N 29°23' W 094°48'612.1
2017-Nov-07 16:30N 29°28' W 094°51'611.6
2017-Nov-07 16:00N 29°33' W 094°55'5 9.2
2017-Nov-07 15:30N 29°37' W 094°58'2 4.8
2017-Nov-07 15:00N 29°37' W 095°01'0 0.1
2017-Nov-07 14:30N 29°37' W 095°01'0 0.0
2017-Nov-07 14:00N 29°37' W 095°01'0 0.0
2017-Nov-07 13:30N 29°37' W 095°01'0 0.0
2017-Nov-07 13:00N 29°37' W 095°01'0 0.0
2017-Nov-07 12:30N 29°37' W 095°01'0 0.0
2017-Nov-07 12:00N 29°37' W 095°01'0 0.0
2017-Nov-07 11:24N 29°37' W 095°01'0 0.0
2017-Nov-07 11:00N 29°37' W 095°01'0 0.0
2017-Nov-07 10:30N 29°37' W 095°01'0 0.0
2017-Nov-07 10:00N 29°37' W 095°01'0 0.0
2017-Nov-07 09:30N 29°37' W 095°01'0 0.0
2017-Nov-07 09:00N 29°37' W 095°01'0 0.0
2017-Nov-07 08:30N 29°37' W 095°01'0 0.0
2017-Nov-07 08:00N 29°37' W 095°01'0 0.0
2017-Nov-07 07:30N 29°37' W 095°01'0 0.0
2017-Nov-07 07:00N 29°37' W 095°01'0 0.0
2017-Nov-07 06:30N 29°37' W 095°01'0 0.0
2017-Nov-07 06:00N 29°37' W 095°01'0 0.0
2017-Nov-07 05:30N 29°37' W 095°01'0 0.0
2017-Nov-07 05:00N 29°37' W 095°01'0 0.0
2017-Nov-07 04:30N 29°37' W 095°01'0 0.0
2017-Nov-07 04:00N 29°37' W 095°01'0 0.0
2017-Nov-07 03:30N 29°37' W 095°01'0 0.0
2017-Nov-07 03:00N 29°37' W 095°01'0 0.0
2017-Nov-07 02:30N 29°37' W 095°01'0 0.0
2017-Nov-07 02:00N 29°37' W 095°01'0 0.0
2017-Nov-07 01:30N 29°37' W 095°01'0 0.0
2017-Nov-07 01:00N 29°37' W 095°01'0 0.0
2017-Nov-07 00:30N 29°37' W 095°01'0 0.0
2017-Nov-07 00:00N 29°37' W 095°01'0 0.0
2017-Nov-06 23:30N 29°37' W 095°01'0 0.0
2017-Nov-06 23:00N 29°37' W 095°01'0 0.0
2017-Nov-06 22:30N 29°37' W 095°01'0 0.0
2017-Nov-06 22:00N 29°37' W 095°01'0 0.0
2017-Nov-06 21:30N 29°37' W 095°01'0 0.0
2017-Nov-06 21:00N 29°37' W 095°01'0 0.0
2017-Nov-06 20:30N 29°37' W 095°01'  
2017-Nov-03 01:07N 20°09' W 096°21'1 4.2
2017-Nov-03 00:59N 20°08' W 096°21'4 8.1
2017-Nov-03 00:30N 20°05' W 096°19'5 9.3
2017-Nov-03 00:00N 20°00' W 096°17'5 9.1
2017-Nov-02 23:30N 19°56' W 096°15'511.0
2017-Nov-02 23:00N 19°51' W 096°13'1019.1
2017-Nov-02 22:30N 19°42' W 096°09'1019.5
2017-Nov-02 22:00N 19°34' W 096°05'1019.4
2017-Nov-02 21:30N 19°25' W 096°00'919.0
2017-Nov-02 21:00N 19°16' W 095°58'715.0
2017-Nov-02 20:30N 19°11' W 096°04'4 7.5
2017-Nov-02 20:00N 19°12' W 096°08'0 0.6
2017-Nov-02 19:27N 19°13' W 096°08'0 0.0
2017-Nov-02 18:57N 19°13' W 096°08'0 0.0
2017-Nov-02 18:30N 19°13' W 096°08'0 0.0
2017-Nov-02 18:00N 19°13' W 096°08'0 0.0
2017-Nov-02 17:30N 19°13' W 096°08'0 0.0
2017-Nov-02 17:00N 19°13' W 096°08'0 0.0
2017-Nov-02 16:30N 19°13' W 096°08'0 0.0
2017-Nov-02 16:00N 19°13' W 096°08'0 0.0
2017-Nov-02 15:30N 19°13' W 096°08'0 0.0
2017-Nov-02 15:00N 19°13' W 096°08'0 0.0
2017-Nov-02 14:30N 19°13' W 096°08'0 0.0
2017-Nov-02 14:00N 19°13' W 096°08'0 0.0
2017-Nov-02 13:30N 19°13' W 096°08'0 0.0
2017-Nov-02 13:00N 19°13' W 096°08'0 0.0
2017-Nov-02 12:30N 19°13' W 096°08'0 0.0
2017-Nov-02 12:00N 19°13' W 096°08'0 0.0
2017-Nov-02 11:30N 19°13' W 096°08'0 0.0
2017-Nov-02 11:00N 19°13' W 096°08'0 0.0
2017-Nov-02 10:30N 19°13' W 096°08'0 0.0
2017-Nov-02 09:54N 19°13' W 096°08'0 0.0
2017-Nov-02 09:30N 19°13' W 096°08'0 0.0
2017-Nov-02 09:00N 19°13' W 096°08'0 0.0
2017-Nov-02 08:30N 19°13' W 096°08'0 0.0
2017-Nov-02 08:00N 19°13' W 096°08'0 0.0
2017-Nov-02 07:30N 19°13' W 096°08'0 0.0
2017-Nov-02 07:00N 19°13' W 096°08'0 0.0
2017-Nov-02 06:30N 19°13' W 096°08'0 0.0
2017-Nov-02 06:00N 19°13' W 096°08'0 0.0
2017-Nov-02 05:30N 19°13' W 096°08'0 0.0
2017-Nov-02 05:00N 19°13' W 096°08'0 0.9
2017-Nov-02 04:31N 19°12' W 096°08'  
Track history (hours):
 
Tides and Currents Weather Stations Pressure Air Temp Water Temp Dewpoint Dewpoint Depression Visibility Wind Speed Wind Dir Waves Ship Positions

Hs Rome

Last reported at 2017-Nov-12 04:29 UTC. Time now 2017-Nov-19 21:50 UTC.
Position N 26°23' W 079°29'.

Length 300 m; draft 11.3 m.

Type: Ship (hazmat cat A). MMSI: 636092485.

Date/timePositionNaut miles runAvg speedWind from/ knotsBaromVisibWave heightAir tempDewpointWater temp
2017-Nov-12 04:29N 26°23' W 079°29'816.0
2017-Nov-12 04:01N 26°16' W 079°30'816.0
2017-Nov-12 03:30N 26°08' W 079°31'1016.1
2017-Nov-12 02:55N 25°58' W 079°33'716.0
2017-Nov-12 02:30N 25°52' W 079°33'1016.0
2017-Nov-12 01:54N 25°42' W 079°35'14913.9
2017-Nov-11 15:08N 23°51' W 081°25'322.9
2017-Nov-11 14:59N 23°50' W 081°28'1223.3
2017-Nov-11 14:29N 23°48' W 081°41'1121.0
2017-Nov-11 13:59N 23°48' W 081°52'916.9
2017-Nov-11 13:29N 23°48' W 082°01'  
2017-Nov-07 17:25N 29°21' W 094°44'511.5
2017-Nov-07 17:00N 29°23' W 094°48'612.1
2017-Nov-07 16:30N 29°28' W 094°51'611.6
2017-Nov-07 16:00N 29°33' W 094°55'5 9.2
2017-Nov-07 15:30N 29°37' W 094°58'2 4.8
2017-Nov-07 15:00N 29°37' W 095°01'0 0.1
2017-Nov-07 14:30N 29°37' W 095°01'0 0.0
2017-Nov-07 14:00N 29°37' W 095°01'0 0.0
2017-Nov-07 13:30N 29°37' W 095°01'0 0.0
2017-Nov-07 13:00N 29°37' W 095°01'0 0.0
2017-Nov-07 12:30N 29°37' W 095°01'0 0.0
2017-Nov-07 12:00N 29°37' W 095°01'0 0.0
2017-Nov-07 11:24N 29°37' W 095°01'0 0.0
2017-Nov-07 11:00N 29°37' W 095°01'0 0.0
2017-Nov-07 10:30N 29°37' W 095°01'0 0.0
2017-Nov-07 10:00N 29°37' W 095°01'0 0.0
2017-Nov-07 09:30N 29°37' W 095°01'0 0.0
2017-Nov-07 09:00N 29°37' W 095°01'0 0.0
2017-Nov-07 08:30N 29°37' W 095°01'0 0.0
2017-Nov-07 08:00N 29°37' W 095°01'0 0.0
2017-Nov-07 07:30N 29°37' W 095°01'0 0.0
2017-Nov-07 07:00N 29°37' W 095°01'0 0.0
2017-Nov-07 06:30N 29°37' W 095°01'0 0.0
2017-Nov-07 06:00N 29°37' W 095°01'0 0.0
2017-Nov-07 05:30N 29°37' W 095°01'0 0.0
2017-Nov-07 05:00N 29°37' W 095°01'0 0.0
2017-Nov-07 04:30N 29°37' W 095°01'0 0.0
2017-Nov-07 04:00N 29°37' W 095°01'0 0.0
2017-Nov-07 03:30N 29°37' W 095°01'0 0.0
2017-Nov-07 03:00N 29°37' W 095°01'0 0.0
2017-Nov-07 02:30N 29°37' W 095°01'0 0.0
2017-Nov-07 02:00N 29°37' W 095°01'0 0.0
2017-Nov-07 01:30N 29°37' W 095°01'0 0.0
2017-Nov-07 01:00N 29°37' W 095°01'0 0.0
2017-Nov-07 00:30N 29°37' W 095°01'0 0.0
2017-Nov-07 00:00N 29°37' W 095°01'0 0.0
2017-Nov-06 23:30N 29°37' W 095°01'0 0.0
2017-Nov-06 23:00N 29°37' W 095°01'0 0.0
2017-Nov-06 22:30N 29°37' W 095°01'0 0.0
2017-Nov-06 22:00N 29°37' W 095°01'0 0.0
2017-Nov-06 21:30N 29°37' W 095°01'0 0.0
2017-Nov-06 21:00N 29°37' W 095°01'0 0.0
2017-Nov-06 20:30N 29°37' W 095°01'  
2017-Nov-03 01:07N 20°09' W 096°21'1 4.2
2017-Nov-03 00:59N 20°08' W 096°21'4 8.1
2017-Nov-03 00:30N 20°05' W 096°19'5 9.3
2017-Nov-03 00:00N 20°00' W 096°17'5 9.1
2017-Nov-02 23:30N 19°56' W 096°15'511.0
2017-Nov-02 23:00N 19°51' W 096°13'1019.1
2017-Nov-02 22:30N 19°42' W 096°09'1019.5
2017-Nov-02 22:00N 19°34' W 096°05'1019.4
2017-Nov-02 21:30N 19°25' W 096°00'919.0
2017-Nov-02 21:00N 19°16' W 095°58'715.0
2017-Nov-02 20:30N 19°11' W 096°04'4 7.5
2017-Nov-02 20:00N 19°12' W 096°08'0 0.6
2017-Nov-02 19:27N 19°13' W 096°08'0 0.0
2017-Nov-02 18:57N 19°13' W 096°08'0 0.0
2017-Nov-02 18:30N 19°13' W 096°08'0 0.0
2017-Nov-02 18:00N 19°13' W 096°08'0 0.0
2017-Nov-02 17:30N 19°13' W 096°08'0 0.0
2017-Nov-02 17:00N 19°13' W 096°08'0 0.0
2017-Nov-02 16:30N 19°13' W 096°08'0 0.0
2017-Nov-02 16:00N 19°13' W 096°08'0 0.0
2017-Nov-02 15:30N 19°13' W 096°08'0 0.0
2017-Nov-02 15:00N 19°13' W 096°08'0 0.0
2017-Nov-02 14:30N 19°13' W 096°08'0 0.0
2017-Nov-02 14:00N 19°13' W 096°08'0 0.0
2017-Nov-02 13:30N 19°13' W 096°08'0 0.0
2017-Nov-02 13:00N 19°13' W 096°08'0 0.0
2017-Nov-02 12:30N 19°13' W 096°08'0 0.0
2017-Nov-02 12:00N 19°13' W 096°08'0 0.0
2017-Nov-02 11:30N 19°13' W 096°08'0 0.0
2017-Nov-02 11:00N 19°13' W 096°08'0 0.0
2017-Nov-02 10:30N 19°13' W 096°08'0 0.0
2017-Nov-02 09:54N 19°13' W 096°08'0 0.0
2017-Nov-02 09:30N 19°13' W 096°08'0 0.0
2017-Nov-02 09:00N 19°13' W 096°08'0 0.0
2017-Nov-02 08:30N 19°13' W 096°08'0 0.0
2017-Nov-02 08:00N 19°13' W 096°08'0 0.0
2017-Nov-02 07:30N 19°13' W 096°08'0 0.0
2017-Nov-02 07:00N 19°13' W 096°08'0 0.0
2017-Nov-02 06:30N 19°13' W 096°08'0 0.0
2017-Nov-02 06:00N 19°13' W 096°08'0 0.0
2017-Nov-02 05:30N 19°13' W 096°08'0 0.0
2017-Nov-02 05:00N 19°13' W 096°08'0 0.9
2017-Nov-02 04:31N 19°12' W 096°08'  

Dump ship's entire track history